Time;durP1;ratioP1;P1;durP2;ratioP2;P2;SDS_P1;SDS_P2;PMS_P1;PMS_P2;Temp;Humidity;BMP_temperature;BMP_pressure;BME280_temperature;BME280_humidity;BME280_pressure;Samples;Min_cycle;Max_cycle;Signal;HPM_P1;HPM_P2
2022/03/17 00:01:43;;;;;;;7.05;6.45;;;21.40;43.60;;;;;;4982940;28;20039;-59
2022/03/17 00:04:08;;;;;;;7.43;6.82;;;21.40;44.40;;;;;;4975199;28;20129;-59
2022/03/17 00:06:34;;;;;;;7.18;6.57;;;21.40;43.60;;;;;;4977357;28;20043;-59
2022/03/17 00:09:01;;;;;;;7.78;7.15;;;21.40;43.60;;;;;;4971103;28;20057;-60
2022/03/17 00:11:28;;;;;;;7.38;6.78;;;21.30;43.60;;;;;;4975637;28;20058;-59
2022/03/17 00:13:54;;;;;;;6.40;5.90;;;21.40;43.60;;;;;;4978650;28;20062;-59
2022/03/17 00:16:20;;;;;;;7.43;6.75;;;21.30;43.50;;;;;;4976613;28;20042;-59
2022/03/17 00:18:46;;;;;;;6.57;6.03;;;21.30;43.50;;;;;;4977679;28;20275;-58
2022/03/17 00:21:12;;;;;;;6.72;6.18;;;21.30;43.50;;;;;;4978712;28;20532;-59
2022/03/17 00:23:37;;;;;;;7.10;6.50;;;21.30;43.50;;;;;;4974118;28;20034;-59
2022/03/17 00:26:03;;;;;;;6.95;6.28;;;21.30;43.50;;;;;;4973799;28;20126;-59
2022/03/17 00:28:29;;;;;;;7.20;6.60;;;21.30;43.50;;;;;;4976257;28;20077;-59
2022/03/17 00:30:56;;;;;;;7.45;6.65;;;21.20;43.40;;;;;;4974751;28;20483;-59
2022/03/17 00:33:21;;;;;;;6.65;6.07;;;21.20;43.40;;;;;;4975197;28;20051;-59
2022/03/17 00:35:47;;;;;;;7.70;6.88;;;21.20;43.40;;;;;;4976573;28;20054;-59
2022/03/17 00:38:16;;;;;;;6.90;6.35;;;21.20;43.40;;;;;;4970434;28;20042;-60
2022/03/17 00:40:44;;;;;;;7.20;6.60;;;21.20;43.40;;;;;;4978051;28;20050;-58
2022/03/17 00:43:12;;;;;;;7.32;6.72;;;21.30;43.50;;;;;;4977150;28;20112;-59
2022/03/17 00:45:38;;;;;;;7.18;6.57;;;21.20;43.40;;;;;;4978499;28;20105;-59
2022/03/17 00:48:04;;;;;;;7.07;6.47;;;21.20;43.40;;;;;;4976900;28;20163;-60
2022/03/17 00:50:30;;;;;;;7.10;6.50;;;21.20;43.40;;;;;;4976365;28;20141;-59
2022/03/17 00:52:56;;;;;;;6.70;6.00;;;21.20;43.30;;;;;;4982649;28;20112;-60
2022/03/17 00:55:22;;;;;;;7.13;6.47;;;21.10;43.40;;;;;;4973289;28;20321;-59
2022/03/17 00:57:48;;;;;;;7.20;6.50;;;21.10;43.30;;;;;;4976283;28;20053;-59
2022/03/17 01:00:15;;;;;;;7.07;6.38;;;21.10;43.30;;;;;;4974626;28;20498;-58
2022/03/17 01:02:45;;;;;;;6.95;6.25;;;21.20;43.30;;;;;;4991579;28;20479;-60
2022/03/17 01:05:11;;;;;;;7.17;6.57;;;21.10;43.30;;;;;;4975896;28;20542;-59
2022/03/17 01:07:40;;;;;;;6.30;5.78;;;21.10;43.30;;;;;;4973709;28;20055;-60
2022/03/17 01:10:08;;;;;;;6.90;6.30;;;21.10;43.30;;;;;;4978162;28;20117;-59
2022/03/17 01:12:34;;;;;;;7.20;6.50;;;21.10;43.30;;;;;;4973582;28;20057;-59
2022/03/17 01:15:00;;;;;;;7.03;6.43;;;21.10;43.30;;;;;;4973091;28;20038;-59
2022/03/17 01:17:26;;;;;;;6.50;5.97;;;21.00;43.20;;;;;;4976471;28;20053;-59
2022/03/17 01:19:52;;;;;;;6.15;5.65;;;21.10;43.30;;;;;;4975344;28;20069;-59
2022/03/17 01:22:18;;;;;;;7.00;6.35;;;21.10;43.30;;;;;;4975812;28;20062;-59
2022/03/17 01:24:45;;;;;;;6.82;6.22;;;21.00;43.20;;;;;;4969385;28;20043;-58
2022/03/17 01:27:11;;;;;;;7.07;6.20;;;21.00;43.30;;;;;;4976786;28;20050;-59
2022/03/17 01:29:40;;;;;;;6.30;5.80;;;21.00;43.30;;;;;;4975521;28;20081;-59
2022/03/17 01:32:07;;;;;;;6.90;6.30;;;21.00;43.20;;;;;;4990771;28;20165;-59
2022/03/17 01:34:32;;;;;;;6.65;6.05;;;21.00;43.30;;;;;;4973082;28;20054;-58
2022/03/17 01:36:58;;;;;;;7.00;6.40;;;21.00;43.30;;;;;;4975487;28;20047;-59
2022/03/17 01:39:23;;;;;;;6.95;6.35;;;21.00;43.30;;;;;;4966475;28;20047;-58
2022/03/17 01:41:49;;;;;;;6.63;6.13;;;21.00;43.30;;;;;;4974206;28;20528;-60
2022/03/17 01:44:15;;;;;;;6.80;6.20;;;21.00;43.30;;;;;;4974334;28;20412;-58
2022/03/17 01:49:32;;;;;;;7.30;6.70;;;20.90;43.20;;;;;;4955105;28;20092;-59
2022/03/17 01:51:57;;;;;;;7.18;6.50;;;20.90;43.30;;;;;;4974613;28;20097;-60
2022/03/17 01:54:24;;;;;;;7.05;6.30;;;20.90;43.30;;;;;;4968951;28;20145;-58
2022/03/17 01:56:51;;;;;;;7.20;6.50;;;20.90;43.30;;;;;;4976642;28;20054;-59
2022/03/17 01:59:17;;;;;;;6.45;5.93;;;20.90;43.40;;;;;;4989913;28;20066;-60
2022/03/17 02:01:45;;;;;;;6.68;6.10;;;20.90;43.40;;;;;;4976052;28;20066;-58
2022/03/17 02:04:11;;;;;;;7.20;6.50;;;20.90;43.50;;;;;;4960532;28;20101;-59
2022/03/17 02:06:37;;;;;;;6.47;5.88;;;20.90;43.50;;;;;;4973344;28;20058;-59
2022/03/17 02:09:03;;;;;;;7.18;6.57;;;20.90;43.40;;;;;;4971303;28;20166;-59
2022/03/17 02:14:14;;;;;;;6.50;5.90;;;20.90;43.40;;;;;;4973944;28;21109;-58
2022/03/17 02:16:39;;;;;;;6.80;6.20;;;20.90;43.50;;;;;;4975399;28;20104;-60
2022/03/17 02:19:06;;;;;;;6.53;5.93;;;20.80;43.40;;;;;;4971322;28;20043;-58
2022/03/17 02:21:34;;;;;;;6.57;6.03;;;20.90;43.50;;;;;;4976844;28;20458;-60
2022/03/17 02:26:45;;;;;;;6.38;5.88;;;20.90;43.50;;;;;;4974279;28;20053;-58
2022/03/17 02:29:12;;;;;;;6.82;6.18;;;20.80;43.50;;;;;;4963679;28;20058;-59
2022/03/17 02:31:38;;;;;;;7.13;6.43;;;20.80;43.50;;;;;;4974705;28;20362;-60
2022/03/17 02:34:03;;;;;;;6.72;6.15;;;20.80;43.50;;;;;;4973776;28;20506;-59
2022/03/17 02:36:29;;;;;;;6.25;5.72;;;20.80;43.50;;;;;;4974771;28;20058;-58
2022/03/17 02:38:55;;;;;;;6.57;5.97;;;20.80;43.50;;;;;;4967805;28;20050;-61
2022/03/17 02:41:23;;;;;;;6.10;5.60;;;20.80;43.50;;;;;;4975779;28;20054;-60
2022/03/17 02:43:52;;;;;;;6.88;6.28;;;20.80;43.50;;;;;;4973384;28;20046;-59
2022/03/17 02:46:18;;;;;;;6.85;6.35;;;20.80;43.50;;;;;;4973034;28;20530;-59
2022/03/17 02:48:44;;;;;;;6.57;5.93;;;20.80;43.50;;;;;;4974502;28;20062;-59
2022/03/17 02:51:11;;;;;;;6.47;5.97;;;20.80;43.50;;;;;;4974886;28;20063;-60
2022/03/17 02:53:37;;;;;;;6.53;5.97;;;20.80;43.50;;;;;;4971567;28;20039;-60
2022/03/17 02:56:03;;;;;;;6.20;5.68;;;20.80;43.60;;;;;;4970752;28;20050;-60
2022/03/17 02:58:31;;;;;;;6.53;6.03;;;20.80;43.60;;;;;;4973537;28;20051;-60
2022/03/17 03:00:57;;;;;;;7.22;6.55;;;20.70;43.50;;;;;;4970401;28;20245;-59
2022/03/17 03:03:23;;;;;;;6.82;6.28;;;20.70;43.50;;;;;;4969584;28;21141;-59
2022/03/17 03:05:48;;;;;;;6.85;6.35;;;20.70;43.60;;;;;;4974617;28;20046;-60
2022/03/17 03:08:15;;;;;;;6.82;5.95;;;20.70;43.60;;;;;;4972598;28;20380;-59
2022/03/17 03:10:41;;;;;;;6.88;6.25;;;20.70;43.50;;;;;;4967534;28;20129;-60
2022/03/17 03:13:07;;;;;;;7.03;6.32;;;20.70;43.60;;;;;;4984992;28;20108;-60
2022/03/17 03:15:32;;;;;;;6.75;6.15;;;20.70;43.60;;;;;;4972383;28;20458;-60
2022/03/17 03:17:58;;;;;;;6.93;6.32;;;20.70;43.60;;;;;;4973453;28;20046;-59
2022/03/17 03:20:23;;;;;;;6.18;5.68;;;20.70;43.60;;;;;;4972358;28;20477;-60
2022/03/17 03:22:49;;;;;;;6.45;5.95;;;20.70;43.60;;;;;;4973369;28;20060;-59
2022/03/17 03:25:15;;;;;;;6.80;6.20;;;20.70;43.60;;;;;;4951533;28;20100;-59
2022/03/17 03:27:40;;;;;;;7.53;6.82;;;20.70;43.60;;;;;;4973486;28;20129;-59
2022/03/17 03:30:11;;;;;;;6.82;6.32;;;20.70;43.60;;;;;;4972337;28;20053;-60
2022/03/17 03:32:42;;;;;;;6.97;6.38;;;20.70;43.60;;;;;;4973803;28;20079;-59
2022/03/17 03:37:53;;;;;;;6.95;6.35;;;20.70;43.60;;;;;;4972301;28;20066;-59
2022/03/17 03:40:19;;;;;;;6.63;6.03;;;20.60;43.60;;;;;;4967446;28;20553;-59
2022/03/17 03:42:45;;;;;;;6.43;5.93;;;20.60;43.60;;;;;;4974474;28;20481;-59
2022/03/17 03:45:10;;;;;;;7.22;6.63;;;20.60;43.60;;;;;;4986201;28;20865;-59
2022/03/17 03:47:36;;;;;;;7.20;6.65;;;20.60;43.50;;;;;;4974279;28;20050;-58
2022/03/17 03:50:03;;;;;;;7.80;7.20;;;20.60;43.60;;;;;;4972263;28;20478;-60
2022/03/17 03:52:28;;;;;;;7.47;6.80;;;20.60;43.50;;;;;;4973261;28;20462;-59
2022/03/17 03:54:54;;;;;;;7.75;7.07;;;20.60;43.50;;;;;;4984023;28;20053;-60
2022/03/17 03:57:19;;;;;;;6.97;6.38;;;20.60;44.30;;;;;;4973140;28;20472;-59
2022/03/17 03:59:45;;;;;;;7.55;6.95;;;20.60;43.50;;;;;;4974500;28;20089;-59
2022/03/17 04:02:11;;;;;;;7.82;7.07;;;20.60;43.50;;;;;;4974407;28;20092;-59
2022/03/17 04:04:40;;;;;;;7.55;6.95;;;20.60;43.60;;;;;;4975584;28;20117;-59
2022/03/17 04:07:08;;;;;;;8.05;7.45;;;20.60;43.60;;;;;;4976965;28;20035;-60
2022/03/17 04:09:39;;;;;;;7.63;6.93;;;20.50;43.60;;;;;;4974351;28;20097;-60
2022/03/17 04:12:07;;;;;;;8.35;7.65;;;20.60;43.60;;;;;;4977941;28;20054;-59
2022/03/17 04:14:32;;;;;;;8.27;7.57;;;20.50;43.60;;;;;;4978051;28;20047;-59
2022/03/17 04:16:59;;;;;;;8.65;7.75;;;20.60;43.70;;;;;;4975481;28;20057;-59
2022/03/17 04:19:25;;;;;;;9.20;8.40;;;20.50;43.60;;;;;;4977954;28;20077;-59
2022/03/17 04:21:51;;;;;;;8.00;7.30;;;20.50;43.60;;;;;;4976451;28;20049;-60
2022/03/17 04:24:17;;;;;;;8.63;7.93;;;20.60;43.80;;;;;;4959289;28;20129;-59
2022/03/17 04:26:44;;;;;;;9.23;8.43;;;20.50;43.70;;;;;;4973200;28;20069;-61
2022/03/17 04:29:11;;;;;;;9.65;8.85;;;20.50;43.80;;;;;;4977758;28;20046;-60
2022/03/17 04:31:38;;;;;;;9.80;8.88;;;20.50;43.90;;;;;;4976251;28;20046;-59
2022/03/17 04:34:04;;;;;;;10.02;9.13;;;20.50;44.00;;;;;;4976220;28;20118;-59
2022/03/17 04:36:31;;;;;;;9.02;8.32;;;20.50;44.10;;;;;;4974854;28;21026;-59
2022/03/17 04:38:57;;;;;;;9.05;8.25;;;20.50;44.20;;;;;;4978581;28;20051;-60
2022/03/17 04:41:22;;;;;;;9.73;8.88;;;20.50;44.30;;;;;;4954561;28;20050;-59
2022/03/17 04:43:48;;;;;;;9.45;8.57;;;20.50;44.30;;;;;;4976277;28;20046;-59
2022/03/17 04:46:14;;;;;;;10.07;9.10;;;20.50;44.40;;;;;;4975749;28;20054;-59
2022/03/17 04:48:40;;;;;;;10.15;9.30;;;20.50;44.50;;;;;;4977560;28;20093;-59
2022/03/17 04:51:06;;;;;;;9.63;8.73;;;20.50;44.50;;;;;;4975524;28;20499;-59
2022/03/17 04:53:32;;;;;;;9.63;8.70;;;20.50;44.60;;;;;;4988213;28;20544;-59
2022/03/17 04:55:59;;;;;;;10.85;9.95;;;20.40;44.70;;;;;;4969889;28;20125;-60
2022/03/17 04:58:25;;;;;;;9.40;8.60;;;20.50;44.80;;;;;;4975803;28;20061;-59
2022/03/17 05:00:53;;;;;;;8.52;7.82;;;20.50;44.90;;;;;;4969873;28;20108;-60
2022/03/17 05:03:19;;;;;;;7.38;6.78;;;20.40;44.90;;;;;;4971631;28;20061;-60
2022/03/17 05:05:45;;;;;;;8.35;7.55;;;20.40;45.00;;;;;;4971572;28;20082;-59
2022/03/17 05:08:11;;;;;;;6.95;6.35;;;20.40;45.10;;;;;;4974795;28;20549;-58
2022/03/17 05:10:37;;;;;;;6.88;6.22;;;20.40;45.10;;;;;;4971441;28;20046;-59
2022/03/17 05:13:04;;;;;;;5.88;5.40;;;20.40;45.10;;;;;;4976065;28;20440;-59
2022/03/17 05:15:30;;;;;;;6.35;5.28;;;20.40;45.00;;;;;;4974701;28;20050;-60
2022/03/17 05:17:56;;;;;;;5.13;4.72;;;20.40;45.00;;;;;;4972291;28;20105;-59
2022/03/17 05:20:22;;;;;;;5.47;5.07;;;20.40;45.00;;;;;;4975292;28;20057;-58
2022/03/17 05:22:48;;;;;;;4.80;4.40;;;20.40;45.00;;;;;;4976403;28;20054;-58
2022/03/17 05:25:14;;;;;;;5.00;4.60;;;20.40;45.00;;;;;;4974496;28;20042;-59
2022/03/17 05:27:41;;;;;;;4.18;3.88;;;20.40;45.00;;;;;;4972587;28;20038;-60
2022/03/17 05:30:10;;;;;;;4.30;3.90;;;20.40;45.80;;;;;;4977022;28;20042;-58
2022/03/17 05:32:36;;;;;;;4.03;3.72;;;20.40;45.10;;;;;;4974211;28;20100;-59
2022/03/17 05:35:02;;;;;;;3.83;3.53;;;20.40;45.10;;;;;;4977430;28;20051;-59
2022/03/17 05:37:28;;;;;;;4.65;4.25;;;20.40;45.10;;;;;;4973990;28;20450;-57
2022/03/17 05:39:54;;;;;;;3.75;3.45;;;20.40;45.20;;;;;;4974920;28;20056;-58
2022/03/17 05:42:19;;;;;;;3.95;3.28;;;20.40;45.20;;;;;;4980011;28;20053;-60
2022/03/17 05:44:45;;;;;;;2.85;2.65;;;20.40;45.20;;;;;;4965041;28;20053;-59
2022/03/17 05:47:10;;;;;;;3.33;3.08;;;20.40;45.20;;;;;;4981568;28;20050;-59
2022/03/17 05:49:36;;;;;;;5.60;3.00;;;20.30;45.20;;;;;;4968432;28;20499;-58
2022/03/17 05:52:02;;;;;;;3.15;2.85;;;20.40;45.30;;;;;;4972515;28;20150;-59
2022/03/17 05:54:28;;;;;;;2.83;2.63;;;20.30;45.30;;;;;;4975763;28;20058;-58
2022/03/17 05:56:54;;;;;;;3.03;2.75;;;20.30;45.30;;;;;;4974256;28;20510;-59
2022/03/17 05:59:19;;;;;;;4.00;2.70;;;20.30;45.30;;;;;;4974906;28;20046;-59
2022/03/17 06:01:45;;;;;;;3.97;2.65;;;20.30;45.40;;;;;;4961780;28;20055;-58
2022/03/17 06:04:10;;;;;;;3.72;2.80;;;20.30;45.40;;;;;;4973295;28;20052;-59
2022/03/17 06:06:36;;;;;;;4.30;2.50;;;20.30;45.50;;;;;;4973475;28;20045;-58
2022/03/17 06:09:01;;;;;;;3.67;2.90;;;20.30;45.40;;;;;;4974885;28;20046;-59
2022/03/17 06:11:28;;;;;;;4.43;2.80;;;20.30;45.40;;;;;;4975785;28;20513;-58
2022/03/17 06:13:56;;;;;;;3.97;3.20;;;20.20;45.30;;;;;;4973388;28;20055;-59
2022/03/17 06:16:23;;;;;;;4.97;2.97;;;20.20;45.30;;;;;;4974581;28;20725;-58
2022/03/17 06:18:49;;;;;;;3.10;2.78;;;20.20;45.30;;;;;;4971444;28;20503;-57
2022/03/17 06:21:14;;;;;;;4.00;3.30;;;20.20;45.30;;;;;;4975009;28;20061;-59
2022/03/17 06:23:40;;;;;;;4.57;3.00;;;20.20;45.20;;;;;;4978596;28;20046;-58
2022/03/17 06:26:05;;;;;;;5.28;3.35;;;20.20;45.20;;;;;;4972303;28;20130;-58
2022/03/17 06:28:31;;;;;;;5.05;3.40;;;20.20;45.10;;;;;;4972250;28;20470;-58
2022/03/17 06:30:57;;;;;;;5.38;3.53;;;20.20;45.10;;;;;;4975162;28;20049;-58
2022/03/17 06:33:23;;;;;;;6.75;4.07;;;20.20;45.00;;;;;;4971800;28;20058;-58
2022/03/17 06:35:48;;;;;;;5.55;3.55;;;20.10;45.00;;;;;;4972855;28;20466;-57
2022/03/17 06:38:14;;;;;;;4.80;3.60;;;20.10;45.00;;;;;;4973931;28;20129;-58
2022/03/17 06:40:41;;;;;;;5.22;3.70;;;20.10;45.00;;;;;;4974811;28;20198;-57
2022/03/17 06:43:07;;;;;;;7.13;4.03;;;20.10;45.00;;;;;;4974171;28;20086;-58
2022/03/17 06:45:33;;;;;;;5.07;3.28;;;20.10;44.90;;;;;;4974896;28;20082;-58
2022/03/17 06:47:59;;;;;;;4.10;3.42;;;20.10;44.90;;;;;;4972558;28;20050;-58
2022/03/17 06:50:25;;;;;;;5.90;3.42;;;20.10;44.80;;;;;;4974293;28;20054;-58
2022/03/17 06:52:51;;;;;;;5.18;2.90;;;20.10;44.80;;;;;;4974915;28;20073;-57
2022/03/17 06:55:18;;;;;;;3.67;2.63;;;20.10;44.70;;;;;;4972987;28;20056;-58
2022/03/17 06:57:44;;;;;;;4.13;2.65;;;20.10;44.60;;;;;;4974763;28;20086;-58
2022/03/17 07:00:13;;;;;;;4.70;2.60;;;20.10;44.60;;;;;;4973165;28;20509;-58
2022/03/17 07:02:38;;;;;;;5.03;2.72;;;20.00;44.30;;;;;;4974171;28;20082;-58
2022/03/17 07:05:05;;;;;;;4.90;2.50;;;20.00;44.30;;;;;;4973769;28;21347;-61
2022/03/17 07:07:30;;;;;;;5.85;2.67;;;20.10;44.30;;;;;;4973737;28;20458;-59
2022/03/17 07:09:56;;;;;;;5.25;2.90;;;20.00;44.30;;;;;;4975517;28;20038;-58
2022/03/17 07:12:22;;;;;;;3.65;2.10;;;20.10;44.40;;;;;;4973255;28;20086;-58
2022/03/17 07:14:47;;;;;;;4.88;2.15;;;20.10;44.40;;;;;;4978529;28;20041;-59
2022/03/17 07:17:13;;;;;;;4.32;2.17;;;20.10;44.30;;;;;;4969781;28;20376;-60
2022/03/17 07:19:39;;;;;;;4.13;1.95;;;20.10;44.40;;;;;;4973644;28;20129;-59
2022/03/17 07:22:04;;;;;;;3.55;2.17;;;20.10;44.30;;;;;;4972936;28;20053;-60
2022/03/17 07:24:30;;;;;;;4.07;1.75;;;20.10;44.30;;;;;;4972439;28;20088;-58
2022/03/17 07:26:58;;;;;;;3.92;1.98;;;20.10;44.30;;;;;;4973496;28;20540;-58
2022/03/17 07:29:23;;;;;;;3.92;1.92;;;20.10;44.40;;;;;;4974643;28;20294;-58
2022/03/17 07:31:49;;;;;;;4.35;1.70;;;20.10;44.40;;;;;;4970592;28;20533;-58
2022/03/17 07:34:15;;;;;;;4.72;1.77;;;20.10;44.40;;;;;;4971741;28;20042;-58
2022/03/17 07:36:40;;;;;;;4.32;1.88;;;20.10;44.40;;;;;;4987281;28;20664;-58
2022/03/17 07:39:06;;;;;;;5.82;2.45;;;20.20;44.60;;;;;;4975093;28;20132;-58
2022/03/17 07:41:32;;;;;;;4.38;1.60;;;20.20;44.60;;;;;;4974747;28;20051;-58
2022/03/17 07:43:57;;;;;;;4.82;2.17;;;20.20;44.60;;;;;;4974538;28;20053;-59
2022/03/17 07:46:23;;;;;;;4.05;1.70;;;20.20;44.60;;;;;;4974685;28;20383;-58
2022/03/17 07:48:49;;;;;;;3.08;1.88;;;20.20;44.60;;;;;;4975602;28;20054;-59
2022/03/17 07:51:14;;;;;;;4.35;1.85;;;20.20;44.60;;;;;;4972973;28;21176;-61
2022/03/17 07:53:40;;;;;;;3.00;1.63;;;20.20;44.60;;;;;;4981506;28;20057;-63
2022/03/17 07:56:08;;;;;;;3.00;1.70;;;20.20;44.60;;;;;;4958390;28;20089;-53
2022/03/17 07:58:34;;;;;;;4.85;1.92;;;20.20;44.60;;;;;;4975809;28;20059;-66
2022/03/17 08:01:00;;;;;;;7.25;2.25;;;20.30;44.60;;;;;;4975878;28;20049;-59
2022/03/17 08:03:27;;;;;;;3.05;1.90;;;20.30;44.60;;;;;;4973060;28;20090;-58
2022/03/17 08:05:53;;;;;;;5.43;1.77;;;20.30;44.70;;;;;;4975577;28;20066;-59
2022/03/17 08:08:19;;;;;;;7.25;1.98;;;20.30;44.70;;;;;;4973081;28;20054;-60
2022/03/17 08:10:45;;;;;;;3.47;1.85;;;20.30;44.80;;;;;;4972109;28;20034;-61
2022/03/17 08:13:11;;;;;;;6.35;2.38;;;20.30;44.90;;;;;;4971982;28;20571;-62
2022/03/17 08:15:38;;;;;;;4.15;2.03;;;20.30;44.80;;;;;;4975064;28;20042;-60
2022/03/17 08:18:04;;;;;;;2.92;1.75;;;20.30;44.80;;;;;;4973363;28;20045;-61
2022/03/17 08:20:30;;;;;;;6.40;2.40;;;20.30;44.70;;;;;;4976250;28;20165;-59
2022/03/17 08:22:56;;;;;;;6.05;2.35;;;20.30;44.80;;;;;;4975080;28;20050;-59
2022/03/17 08:25:22;;;;;;;4.78;2.38;;;20.40;44.70;;;;;;4974197;28;20054;-59
2022/03/17 08:27:50;;;;;;;5.47;2.08;;;20.30;44.70;;;;;;4975120;28;20654;-61
2022/03/17 08:30:16;;;;;;;4.03;2.40;;;20.40;44.60;;;;;;4971263;28;20065;-59
2022/03/17 08:32:42;;;;;;;4.22;2.30;;;20.40;44.70;;;;;;4973260;28;20046;-60
2022/03/17 08:35:09;;;;;;;4.65;2.10;;;20.40;44.60;;;;;;4974357;28;20075;-59
2022/03/17 08:37:42;;;;;;;4.80;2.75;;;20.40;44.50;;;;;;4972295;28;20121;-58
2022/03/17 08:40:09;;;;;;;4.18;2.17;;;20.40;44.40;;;;;;4972929;28;20089;-59
2022/03/17 08:42:34;;;;;;;6.97;2.30;;;20.40;44.40;;;;;;4973758;28;20083;-58
2022/03/17 08:45:00;;;;;;;3.28;1.80;;;20.40;44.40;;;;;;4979248;28;20133;-58
2022/03/17 08:50:10;;;;;;;4.03;2.10;;;20.40;44.30;;;;;;4974126;28;20117;-59
2022/03/17 08:52:36;;;;;;;3.70;1.92;;;20.40;44.30;;;;;;4972718;28;20050;-60
2022/03/17 08:55:02;;;;;;;4.10;1.50;;;20.40;44.30;;;;;;4972721;28;20087;-59
2022/03/17 08:57:28;;;;;;;4.45;2.17;;;20.40;44.30;;;;;;4974307;28;20058;-60
2022/03/17 08:59:53;;;;;;;3.00;1.77;;;20.40;44.20;;;;;;4980886;28;20046;-58
2022/03/17 09:02:19;;;;;;;4.32;1.90;;;20.40;44.10;;;;;;4974718;28;20061;-59
2022/03/17 09:04:45;;;;;;;5.07;1.80;;;20.40;44.10;;;;;;4975541;28;20158;-59
2022/03/17 09:07:11;;;;;;;3.58;1.88;;;20.40;44.10;;;;;;4972457;28;20047;-59
2022/03/17 09:09:38;;;;;;;3.70;1.65;;;20.50;44.10;;;;;;4973322;28;20762;-60
2022/03/17 09:12:06;;;;;;;3.85;1.88;;;20.40;44.00;;;;;;4973643;28;20050;-58
2022/03/17 09:14:40;;;;;;;4.47;2.22;;;20.50;43.90;;;;;;4975636;28;20061;-58
2022/03/17 09:17:05;;;;;;;5.88;1.85;;;20.40;43.80;;;;;;4975546;28;20145;-58
2022/03/17 09:19:32;;;;;;;4.35;1.60;;;20.50;43.90;;;;;;4974022;28;20055;-59
2022/03/17 09:21:57;;;;;;;3.83;1.75;;;20.40;44.00;;;;;;4975086;28;20054;-58
2022/03/17 09:24:23;;;;;;;5.70;1.70;;;20.50;43.90;;;;;;4973784;28;20038;-59
2022/03/17 09:26:49;;;;;;;5.63;1.90;;;20.50;44.00;;;;;;4974138;28;20047;-59
2022/03/17 09:29:16;;;;;;;4.35;1.63;;;20.50;43.90;;;;;;4974878;28;20185;-59
2022/03/17 09:31:42;;;;;;;3.25;1.52;;;20.50;43.90;;;;;;4973413;28;20058;-58
2022/03/17 09:34:09;;;;;;;5.30;1.80;;;20.50;43.90;;;;;;4975040;28;20076;-60
2022/03/17 09:36:34;;;;;;;5.18;1.50;;;20.50;43.90;;;;;;4971106;28;20049;-58
2022/03/17 09:41:44;;;;;;;4.68;1.60;;;20.50;43.80;;;;;;4975525;28;20053;-58
2022/03/17 09:44:10;;;;;;;4.70;1.35;;;20.50;43.80;;;;;;4972246;28;20039;-59
2022/03/17 09:46:39;;;;;;;2.83;1.60;;;20.50;44.00;;;;;;4975520;28;20046;-59
2022/03/17 09:49:06;;;;;;;3.58;1.27;;;20.50;43.90;;;;;;4973341;28;21122;-58
2022/03/17 09:51:33;;;;;;;4.20;1.60;;;20.50;43.80;;;;;;4975772;28;20074;-58
2022/03/17 09:54:00;;;;;;;8.75;1.60;;;20.50;43.80;;;;;;4976143;28;20132;-59
2022/03/17 09:56:27;;;;;;;6.20;1.60;;;20.50;43.80;;;;;;4977656;28;20078;-59
2022/03/17 09:58:54;;;;;;;6.53;1.67;;;20.50;43.70;;;;;;4974095;28;20299;-60
2022/03/17 10:01:22;;;;;;;5.45;1.33;;;20.50;43.70;;;;;;4973914;28;20042;-59
2022/03/17 10:03:49;;;;;;;5.82;1.52;;;20.50;43.70;;;;;;4970378;28;20113;-59
2022/03/17 10:06:18;;;;;;;6.93;1.60;;;20.50;43.60;;;;;;4971480;28;20092;-59
2022/03/17 10:08:48;;;;;;;4.95;1.45;;;20.50;43.60;;;;;;4972606;28;20046;-59
2022/03/17 10:11:16;;;;;;;5.13;1.52;;;20.50;43.70;;;;;;4986652;28;20050;-60
2022/03/17 10:13:46;;;;;;;5.60;1.33;;;20.50;43.70;;;;;;4969785;28;20044;-59
2022/03/17 10:16:17;;;;;;;5.18;1.42;;;20.50;43.70;;;;;;4971763;28;20042;-59
2022/03/17 10:18:45;;;;;;;2.22;1.20;;;20.50;43.70;;;;;;4971598;28;20050;-59
2022/03/17 10:21:24;;;;;;;3.10;1.40;;;20.50;43.80;;;;;;4973594;28;20091;-58
2022/03/17 10:24:03;;;;;;;5.20;1.50;;;20.50;44.50;;;;;;4971700;28;20109;-58
2022/03/17 10:26:35;;;;;;;2.92;1.13;;;20.60;43.80;;;;;;4971179;28;20060;-59
2022/03/17 10:29:27;;;;;;;4.05;1.40;;;20.50;43.70;;;;;;4972603;28;20391;-59
2022/03/17 10:32:07;;;;;;;3.55;1.20;;;20.50;43.60;;;;;;4972273;28;20057;-59
2022/03/17 10:34:45;;;;;;;3.90;1.20;;;20.50;43.70;;;;;;4976003;28;20047;-59
2022/03/17 10:37:18;;;;;;;3.50;1.30;;;20.50;43.60;;;;;;4969458;28;20057;-60
2022/03/17 10:39:49;;;;;;;3.83;1.15;;;20.50;43.60;;;;;;4974702;28;20050;-59
2022/03/17 10:42:24;;;;;;;2.95;1.23;;;20.60;43.60;;;;;;4971365;28;20038;-58
2022/03/17 10:44:52;;;;;;;3.88;1.45;;;20.50;44.20;;;;;;4972924;28;20045;-58
2022/03/17 10:47:27;;;;;;;4.28;1.13;;;20.50;43.40;;;;;;4985758;28;20058;-58
2022/03/17 10:50:09;;;;;;;2.53;1.30;;;20.60;43.30;;;;;;4972162;28;20065;-60
2022/03/17 10:52:45;;;;;;;2.30;1.15;;;20.60;43.20;;;;;;4973118;28;20675;-59
2022/03/17 10:55:12;;;;;;;3.97;0.90;;;20.50;43.20;;;;;;4973051;28;20046;-59
2022/03/17 10:57:39;;;;;;;3.80;1.30;;;20.60;43.30;;;;;;4972136;28;20141;-59
2022/03/17 11:00:10;;;;;;;2.38;1.00;;;20.50;43.00;;;;;;4973157;28;20459;-58
2022/03/17 11:02:40;;;;;;;1.17;0.80;;;20.50;43.00;;;;;;4973065;28;20570;-59
2022/03/17 11:05:10;;;;;;;2.15;1.00;;;20.50;43.00;;;;;;4972570;28;20069;-59
2022/03/17 11:07:38;;;;;;;2.88;1.15;;;20.50;42.80;;;;;;4974585;28;20050;-58
2022/03/17 11:10:05;;;;;;;1.70;1.08;;;20.60;42.90;;;;;;4974681;28;20125;-59
2022/03/17 11:12:31;;;;;;;2.30;1.23;;;20.50;42.80;;;;;;4974610;28;20109;-58
2022/03/17 11:14:57;;;;;;;2.97;1.20;;;20.50;42.80;;;;;;4977193;28;20054;-59
2022/03/17 11:17:26;;;;;;;2.00;0.95;;;20.60;42.80;;;;;;4978089;28;20126;-59
2022/03/17 11:19:54;;;;;;;3.47;1.20;;;20.50;42.80;;;;;;4979363;28;20164;-59
2022/03/17 11:22:28;;;;;;;2.80;1.10;;;20.50;42.80;;;;;;4977330;28;20078;-59
2022/03/17 11:25:20;;;;;;;3.75;1.30;;;20.50;42.90;;;;;;4977253;28;20038;-59
2022/03/17 11:27:47;;;;;;;4.75;1.23;;;20.50;42.80;;;;;;4977077;28;20795;-59
2022/03/17 11:30:14;;;;;;;2.78;1.10;;;20.50;42.90;;;;;;4977083;28;20429;-59
2022/03/17 11:32:48;;;;;;;3.63;1.30;;;20.60;43.00;;;;;;4977558;28;20054;-60
2022/03/17 11:35:18;;;;;;;2.83;0.90;;;20.60;43.00;;;;;;4975274;28;20057;-59
2022/03/17 11:37:44;;;;;;;2.83;1.02;;;20.60;43.00;;;;;;4977030;28;20053;-59
2022/03/17 11:40:13;;;;;;;2.72;1.27;;;20.60;43.00;;;;;;4975521;28;20042;-59
2022/03/17 11:42:56;;;;;;;7.10;1.33;;;20.60;43.00;;;;;;4975640;28;20053;-59
2022/03/17 11:45:22;;;;;;;4.20;1.60;;;20.60;43.10;;;;;;4975573;28;20141;-59
2022/03/17 11:48:06;;;;;;;3.00;1.10;;;20.60;43.10;;;;;;4960722;28;20150;-60
2022/03/17 11:50:38;;;;;;;3.45;1.00;;;20.60;43.10;;;;;;4974924;28;20152;-59
2022/03/17 11:53:04;;;;;;;4.47;1.00;;;20.60;43.20;;;;;;4978285;28;20054;-59
2022/03/17 11:55:39;;;;;;;3.42;1.00;;;20.60;43.10;;;;;;4976073;28;20050;-58
2022/03/17 11:58:47;;;;;;;2.22;1.05;;;20.60;43.10;;;;;;4980899;28;20038;-59
2022/03/17 12:01:29;;;;;;;4.13;1.23;;;20.60;43.10;;;;;;4978147;28;20051;-60
2022/03/17 12:03:59;;;;;;;3.78;1.60;;;20.60;43.20;;;;;;4977210;28;20445;-59
2022/03/17 12:06:27;;;;;;;7.88;3.20;;;20.60;43.50;;;;;;4977430;28;20061;-58
2022/03/17 12:09:00;;;;;;;9.63;2.50;;;20.70;43.80;;;;;;4975983;28;20101;-59
2022/03/17 12:11:30;;;;;;;7.93;2.50;;;20.60;44.00;;;;;;4976331;28;20137;-59
2022/03/17 12:14:27;;;;;;;7.05;1.90;;;20.60;43.90;;;;;;4976519;28;20771;-59
2022/03/17 12:17:04;;;;;;;6.45;2.40;;;20.70;44.00;;;;;;4976242;28;20054;-59
2022/03/17 12:19:38;;;;;;;5.28;2.00;;;20.70;43.80;;;;;;4962962;28;20797;-59
2022/03/17 12:22:12;;;;;;;8.18;2.25;;;20.60;43.70;;;;;;4991591;28;20092;-59
2022/03/17 12:24:40;;;;;;;5.05;1.75;;;20.70;43.80;;;;;;4974361;28;20113;-59
2022/03/17 12:27:17;;;;;;;5.90;1.83;;;20.70;43.80;;;;;;4972943;28;20054;-59
2022/03/17 12:29:45;;;;;;;7.07;1.65;;;20.70;43.60;;;;;;4975347;28;20038;-59
2022/03/17 12:32:14;;;;;;;3.67;1.40;;;20.60;43.40;;;;;;4975647;28;20466;-60
2022/03/17 12:34:43;;;;;;;7.15;2.40;;;20.70;43.50;;;;;;4975000;28;20046;-59
2022/03/17 12:37:09;;;;;;;3.40;1.55;;;20.70;43.40;;;;;;4976500;28;20122;-59
2022/03/17 12:39:35;;;;;;;6.32;1.50;;;20.70;43.30;;;;;;4976080;28;20054;-59
2022/03/17 12:42:11;;;;;;;5.43;1.92;;;20.60;43.20;;;;;;4977642;28;20149;-59
2022/03/17 12:44:46;;;;;;;3.13;1.30;;;20.60;43.10;;;;;;4989616;28;20051;-59
2022/03/17 12:47:12;;;;;;;7.90;1.77;;;20.60;43.10;;;;;;4959287;28;20054;-60
2022/03/17 12:49:38;;;;;;;4.13;2.13;;;20.60;43.10;;;;;;4978204;28;20069;-59
2022/03/17 12:52:17;;;;;;;3.40;1.48;;;20.60;43.10;;;;;;4976414;28;20051;-59
2022/03/17 12:54:43;;;;;;;12.27;2.17;;;20.60;43.10;;;;;;4977877;28;20054;-59
2022/03/17 12:57:09;;;;;;;4.70;1.83;;;20.70;43.20;;;;;;4976730;28;20126;-59
2022/03/17 12:59:34;;;;;;;4.90;1.70;;;20.70;43.10;;;;;;4970907;28;20108;-59
2022/03/17 13:02:00;;;;;;;3.60;1.50;;;20.70;43.10;;;;;;4971365;28;20046;-59
2022/03/17 13:04:29;;;;;;;6.82;1.52;;;20.70;43.00;;;;;;4975229;28;20640;-59